sensor_id;sensor_type;location;lat;lon;timestamp;P1;durP1;ratioP1;P2;durP2;ratioP2
29730;SDS011;16639;51.488;0.152;2022-08-01T00:00:49;5.05;;;3.17;;
29730;SDS011;16639;51.488;0.152;2022-08-01T00:03:16;3.78;;;2.65;;
29730;SDS011;16639;51.488;0.152;2022-08-01T00:05:44;3.53;;;2.90;;
29730;SDS011;16639;51.488;0.152;2022-08-01T00:08:29;2.65;;;2.45;;
29730;SDS011;16639;51.488;0.152;2022-08-01T00:10:56;2.92;;;2.72;;
29730;SDS011;16639;51.488;0.152;2022-08-01T00:13:28;4.45;;;3.28;;
29730;SDS011;16639;51.488;0.152;2022-08-01T00:15:57;4.57;;;3.25;;
29730;SDS011;16639;51.488;0.152;2022-08-01T00:18:24;5.07;;;3.00;;
29730;SDS011;16639;51.488;0.152;2022-08-01T00:20:51;5.07;;;3.08;;
29730;SDS011;16639;51.488;0.152;2022-08-01T00:23:19;5.45;;;3.33;;
29730;SDS011;16639;51.488;0.152;2022-08-01T00:25:46;8.73;;;2.70;;
29730;SDS011;16639;51.488;0.152;2022-08-01T00:28:13;4.13;;;2.60;;
29730;SDS011;16639;51.488;0.152;2022-08-01T00:30:41;3.78;;;2.63;;
29730;SDS011;16639;51.488;0.152;2022-08-01T00:33:08;3.53;;;2.40;;
29730;SDS011;16639;51.488;0.152;2022-08-01T00:35:39;2.70;;;2.30;;
29730;SDS011;16639;51.488;0.152;2022-08-01T00:38:06;3.17;;;2.55;;
29730;SDS011;16639;51.488;0.152;2022-08-01T00:40:33;4.72;;;2.70;;
29730;SDS011;16639;51.488;0.152;2022-08-01T00:43:01;3.75;;;2.97;;
29730;SDS011;16639;51.488;0.152;2022-08-01T00:45:28;5.20;;;2.92;;
29730;SDS011;16639;51.488;0.152;2022-08-01T00:47:55;6.43;;;3.20;;
29730;SDS011;16639;51.488;0.152;2022-08-01T00:50:23;5.18;;;2.90;;
29730;SDS011;16639;51.488;0.152;2022-08-01T00:52:50;4.25;;;3.08;;
29730;SDS011;16639;51.488;0.152;2022-08-01T00:55:18;5.35;;;3.38;;
29730;SDS011;16639;51.488;0.152;2022-08-01T00:57:47;5.38;;;3.22;;
29730;SDS011;16639;51.488;0.152;2022-08-01T01:00:31;4.68;;;3.47;;
29730;SDS011;16639;51.488;0.152;2022-08-01T01:03:19;5.57;;;2.80;;
29730;SDS011;16639;51.488;0.152;2022-08-01T01:06:23;3.28;;;2.70;;
29730;SDS011;16639;51.488;0.152;2022-08-01T01:11:43;4.55;;;3.30;;
29730;SDS011;16639;51.488;0.152;2022-08-01T01:14:13;3.00;;;2.53;;
29730;SDS011;16639;51.488;0.152;2022-08-01T01:17:04;3.47;;;2.78;;
29730;SDS011;16639;51.488;0.152;2022-08-01T01:19:35;3.40;;;2.40;;
29730;SDS011;16639;51.488;0.152;2022-08-01T01:22:14;5.00;;;2.78;;
29730;SDS011;16639;51.488;0.152;2022-08-01T01:30:39;3.42;;;2.40;;
29730;SDS011;16639;51.488;0.152;2022-08-01T01:33:09;5.68;;;2.42;;
29730;SDS011;16639;51.488;0.152;2022-08-01T01:35:41;4.30;;;2.90;;
29730;SDS011;16639;51.488;0.152;2022-08-01T01:38:22;3.83;;;2.60;;
29730;SDS011;16639;51.488;0.152;2022-08-01T01:40:53;3.70;;;2.63;;
29730;SDS011;16639;51.488;0.152;2022-08-01T01:43:23;3.63;;;2.25;;
29730;SDS011;16639;51.488;0.152;2022-08-01T01:45:58;3.80;;;2.03;;
29730;SDS011;16639;51.488;0.152;2022-08-01T01:48:29;2.95;;;2.50;;
29730;SDS011;16639;51.488;0.152;2022-08-01T01:50:57;3.92;;;2.58;;
29730;SDS011;16639;51.488;0.152;2022-08-01T01:53:27;2.70;;;2.47;;
29730;SDS011;16639;51.488;0.152;2022-08-01T01:55:57;2.90;;;2.03;;
29730;SDS011;16639;51.488;0.152;2022-08-01T01:58:25;4.50;;;1.83;;
29730;SDS011;16639;51.488;0.152;2022-08-01T02:00:57;4.32;;;2.47;;
29730;SDS011;16639;51.488;0.152;2022-08-01T02:03:29;2.80;;;2.20;;
29730;SDS011;16639;51.488;0.152;2022-08-01T02:05:58;3.03;;;2.10;;
29730;SDS011;16639;51.488;0.152;2022-08-01T02:08:27;3.22;;;2.22;;
29730;SDS011;16639;51.488;0.152;2022-08-01T02:10:58;4.15;;;2.50;;
29730;SDS011;16639;51.488;0.152;2022-08-01T02:13:53;3.72;;;2.90;;
29730;SDS011;16639;51.488;0.152;2022-08-01T02:16:26;2.08;;;1.80;;
29730;SDS011;16639;51.488;0.152;2022-08-01T02:18:55;4.22;;;1.92;;
29730;SDS011;16639;51.488;0.152;2022-08-01T02:21:26;2.53;;;2.33;;
29730;SDS011;16639;51.488;0.152;2022-08-01T02:24:01;3.35;;;1.95;;
29730;SDS011;16639;51.488;0.152;2022-08-01T02:26:35;3.30;;;2.28;;
29730;SDS011;16639;51.488;0.152;2022-08-01T02:29:06;4.43;;;2.30;;
29730;SDS011;16639;51.488;0.152;2022-08-01T02:31:37;3.92;;;2.55;;
29730;SDS011;16639;51.488;0.152;2022-08-01T02:34:09;5.22;;;2.25;;
29730;SDS011;16639;51.488;0.152;2022-08-01T02:36:39;6.75;;;2.60;;
29730;SDS011;16639;51.488;0.152;2022-08-01T02:39:08;3.63;;;2.03;;
29730;SDS011;16639;51.488;0.152;2022-08-01T02:41:38;1.98;;;1.83;;
29730;SDS011;16639;51.488;0.152;2022-08-01T02:44:10;4.32;;;1.98;;
29730;SDS011;16639;51.488;0.152;2022-08-01T02:46:43;3.33;;;2.63;;
29730;SDS011;16639;51.488;0.152;2022-08-01T02:49:15;4.38;;;2.40;;
29730;SDS011;16639;51.488;0.152;2022-08-01T02:51:46;2.83;;;2.58;;
29730;SDS011;16639;51.488;0.152;2022-08-01T02:54:15;5.55;;;2.33;;
29730;SDS011;16639;51.488;0.152;2022-08-01T02:56:44;3.53;;;2.22;;
29730;SDS011;16639;51.488;0.152;2022-08-01T02:59:15;3.60;;;2.58;;
29730;SDS011;16639;51.488;0.152;2022-08-01T03:01:47;4.20;;;3.00;;
29730;SDS011;16639;51.488;0.152;2022-08-01T03:04:28;3.67;;;3.13;;
29730;SDS011;16639;51.488;0.152;2022-08-01T03:07:05;4.45;;;3.33;;
29730;SDS011;16639;51.488;0.152;2022-08-01T03:09:36;5.05;;;3.05;;
29730;SDS011;16639;51.488;0.152;2022-08-01T03:12:07;6.82;;;3.72;;
29730;SDS011;16639;51.488;0.152;2022-08-01T03:14:38;6.10;;;3.65;;
29730;SDS011;16639;51.488;0.152;2022-08-01T03:17:07;5.13;;;4.15;;
29730;SDS011;16639;51.488;0.152;2022-08-01T03:19:35;5.75;;;3.42;;
29730;SDS011;16639;51.488;0.152;2022-08-01T03:22:06;8.98;;;3.60;;
29730;SDS011;16639;51.488;0.152;2022-08-01T03:24:36;3.88;;;3.00;;
29730;SDS011;16639;51.488;0.152;2022-08-01T03:27:06;4.88;;;3.55;;
29730;SDS011;16639;51.488;0.152;2022-08-01T03:29:34;6.43;;;2.90;;
29730;SDS011;16639;51.488;0.152;2022-08-01T03:32:06;3.17;;;2.40;;
29730;SDS011;16639;51.488;0.152;2022-08-01T03:34:35;12.02;;;3.17;;
29730;SDS011;16639;51.488;0.152;2022-08-01T03:37:05;3.55;;;2.85;;
29730;SDS011;16639;51.488;0.152;2022-08-01T03:39:46;4.40;;;2.45;;
29730;SDS011;16639;51.488;0.152;2022-08-01T03:42:17;3.50;;;2.38;;
29730;SDS011;16639;51.488;0.152;2022-08-01T03:44:52;3.80;;;2.50;;
29730;SDS011;16639;51.488;0.152;2022-08-01T03:47:24;5.57;;;2.55;;
29730;SDS011;16639;51.488;0.152;2022-08-01T03:50:10;3.83;;;2.53;;
29730;SDS011;16639;51.488;0.152;2022-08-01T03:52:40;4.25;;;2.55;;
29730;SDS011;16639;51.488;0.152;2022-08-01T03:55:11;6.20;;;3.33;;
29730;SDS011;16639;51.488;0.152;2022-08-01T03:57:41;3.63;;;2.30;;
29730;SDS011;16639;51.488;0.152;2022-08-01T04:00:10;8.90;;;3.00;;
29730;SDS011;16639;51.488;0.152;2022-08-01T04:02:38;12.05;;;3.25;;
29730;SDS011;16639;51.488;0.152;2022-08-01T04:05:06;4.22;;;2.97;;
29730;SDS011;16639;51.488;0.152;2022-08-01T04:07:34;5.13;;;3.53;;
29730;SDS011;16639;51.488;0.152;2022-08-01T04:10:06;4.15;;;2.90;;
29730;SDS011;16639;51.488;0.152;2022-08-01T04:12:34;5.20;;;2.92;;
29730;SDS011;16639;51.488;0.152;2022-08-01T04:15:02;4.57;;;3.03;;
29730;SDS011;16639;51.488;0.152;2022-08-01T04:17:30;3.78;;;3.25;;
29730;SDS011;16639;51.488;0.152;2022-08-01T04:19:58;7.18;;;3.13;;
29730;SDS011;16639;51.488;0.152;2022-08-01T04:22:25;7.65;;;3.25;;
29730;SDS011;16639;51.488;0.152;2022-08-01T04:24:54;3.03;;;2.42;;
29730;SDS011;16639;51.488;0.152;2022-08-01T04:27:26;6.10;;;3.17;;
29730;SDS011;16639;51.488;0.152;2022-08-01T04:30:17;4.18;;;3.40;;
29730;SDS011;16639;51.488;0.152;2022-08-01T04:32:49;6.25;;;3.00;;
29730;SDS011;16639;51.488;0.152;2022-08-01T04:35:21;4.22;;;2.50;;
29730;SDS011;16639;51.488;0.152;2022-08-01T04:38:12;6.20;;;2.97;;
29730;SDS011;16639;51.488;0.152;2022-08-01T04:40:44;5.72;;;3.22;;
29730;SDS011;16639;51.488;0.152;2022-08-01T04:43:12;5.03;;;2.70;;
29730;SDS011;16639;51.488;0.152;2022-08-01T04:45:40;3.20;;;2.90;;
29730;SDS011;16639;51.488;0.152;2022-08-01T04:48:11;5.63;;;3.30;;
29730;SDS011;16639;51.488;0.152;2022-08-01T04:50:41;3.95;;;3.17;;
29730;SDS011;16639;51.488;0.152;2022-08-01T04:53:13;7.43;;;3.10;;
29730;SDS011;16639;51.488;0.152;2022-08-01T04:55:44;4.50;;;3.22;;
29730;SDS011;16639;51.488;0.152;2022-08-01T04:58:13;4.22;;;2.88;;
29730;SDS011;16639;51.488;0.152;2022-08-01T05:00:44;8.65;;;4.38;;
29730;SDS011;16639;51.488;0.152;2022-08-01T05:03:13;3.97;;;3.13;;
29730;SDS011;16639;51.488;0.152;2022-08-01T05:05:44;7.40;;;4.00;;
29730;SDS011;16639;51.488;0.152;2022-08-01T05:08:12;7.68;;;3.63;;
29730;SDS011;16639;51.488;0.152;2022-08-01T05:10:39;4.97;;;3.58;;
29730;SDS011;16639;51.488;0.152;2022-08-01T05:13:07;5.78;;;3.50;;
29730;SDS011;16639;51.488;0.152;2022-08-01T05:15:35;4.28;;;3.00;;
29730;SDS011;16639;51.488;0.152;2022-08-01T05:18:05;7.70;;;3.85;;
29730;SDS011;16639;51.488;0.152;2022-08-01T05:20:35;5.32;;;3.72;;
29730;SDS011;16639;51.488;0.152;2022-08-01T05:23:04;4.28;;;3.45;;
29730;SDS011;16639;51.488;0.152;2022-08-01T05:25:41;5.63;;;3.08;;
29730;SDS011;16639;51.488;0.152;2022-08-01T05:28:23;6.00;;;3.53;;
29730;SDS011;16639;51.488;0.152;2022-08-01T05:30:51;4.00;;;3.28;;
29730;SDS011;16639;51.488;0.152;2022-08-01T05:33:21;7.00;;;4.60;;
29730;SDS011;16639;51.488;0.152;2022-08-01T05:35:49;8.27;;;4.30;;
29730;SDS011;16639;51.488;0.152;2022-08-01T05:38:16;6.20;;;4.45;;
29730;SDS011;16639;51.488;0.152;2022-08-01T05:40:44;6.20;;;4.03;;
29730;SDS011;16639;51.488;0.152;2022-08-01T05:43:11;8.73;;;4.00;;
29730;SDS011;16639;51.488;0.152;2022-08-01T05:45:39;5.32;;;3.40;;
29730;SDS011;16639;51.488;0.152;2022-08-01T05:48:08;5.10;;;3.63;;
29730;SDS011;16639;51.488;0.152;2022-08-01T05:50:35;8.32;;;3.78;;
29730;SDS011;16639;51.488;0.152;2022-08-01T05:53:03;5.70;;;3.40;;
29730;SDS011;16639;51.488;0.152;2022-08-01T05:55:30;8.65;;;3.42;;
29730;SDS011;16639;51.488;0.152;2022-08-01T05:57:57;7.78;;;3.67;;
29730;SDS011;16639;51.488;0.152;2022-08-01T06:00:25;4.68;;;3.13;;
29730;SDS011;16639;51.488;0.152;2022-08-01T06:02:52;8.88;;;3.72;;
29730;SDS011;16639;51.488;0.152;2022-08-01T06:05:20;4.55;;;2.80;;
29730;SDS011;16639;51.488;0.152;2022-08-01T06:07:47;8.18;;;4.00;;
29730;SDS011;16639;51.488;0.152;2022-08-01T06:10:14;5.60;;;3.60;;
29730;SDS011;16639;51.488;0.152;2022-08-01T06:12:42;7.90;;;4.03;;
29730;SDS011;16639;51.488;0.152;2022-08-01T06:15:09;5.65;;;3.42;;
29730;SDS011;16639;51.488;0.152;2022-08-01T06:17:37;6.25;;;3.72;;
29730;SDS011;16639;51.488;0.152;2022-08-01T06:20:07;6.90;;;3.45;;
29730;SDS011;16639;51.488;0.152;2022-08-01T06:22:35;6.32;;;3.13;;
29730;SDS011;16639;51.488;0.152;2022-08-01T06:25:03;6.85;;;3.25;;
29730;SDS011;16639;51.488;0.152;2022-08-01T06:27:33;9.60;;;3.70;;
29730;SDS011;16639;51.488;0.152;2022-08-01T06:30:02;6.32;;;4.03;;
29730;SDS011;16639;51.488;0.152;2022-08-01T06:32:30;4.63;;;3.08;;
29730;SDS011;16639;51.488;0.152;2022-08-01T06:34:58;6.57;;;4.15;;
29730;SDS011;16639;51.488;0.152;2022-08-01T06:37:31;11.10;;;5.47;;
29730;SDS011;16639;51.488;0.152;2022-08-01T06:40:03;9.10;;;4.18;;
29730;SDS011;16639;51.488;0.152;2022-08-01T06:42:31;8.27;;;4.20;;
29730;SDS011;16639;51.488;0.152;2022-08-01T06:45:02;7.40;;;3.88;;
29730;SDS011;16639;51.488;0.152;2022-08-01T06:47:31;6.28;;;4.07;;
29730;SDS011;16639;51.488;0.152;2022-08-01T06:49:58;7.68;;;3.72;;
29730;SDS011;16639;51.488;0.152;2022-08-01T06:52:26;8.35;;;4.53;;
29730;SDS011;16639;51.488;0.152;2022-08-01T06:54:53;12.48;;;4.47;;
29730;SDS011;16639;51.488;0.152;2022-08-01T06:57:20;8.43;;;4.13;;
29730;SDS011;16639;51.488;0.152;2022-08-01T06:59:48;12.13;;;4.43;;
29730;SDS011;16639;51.488;0.152;2022-08-01T07:02:20;11.07;;;4.55;;
29730;SDS011;16639;51.488;0.152;2022-08-01T07:04:48;8.57;;;4.43;;
29730;SDS011;16639;51.488;0.152;2022-08-01T07:07:15;9.05;;;4.68;;
29730;SDS011;16639;51.488;0.152;2022-08-01T07:09:43;6.60;;;4.20;;
29730;SDS011;16639;51.488;0.152;2022-08-01T07:12:10;12.80;;;4.75;;
29730;SDS011;16639;51.488;0.152;2022-08-01T07:14:38;11.65;;;5.30;;
29730;SDS011;16639;51.488;0.152;2022-08-01T07:17:05;9.40;;;4.82;;
29730;SDS011;16639;51.488;0.152;2022-08-01T07:19:32;9.63;;;4.57;;
29730;SDS011;16639;51.488;0.152;2022-08-01T07:22:04;10.02;;;4.60;;
29730;SDS011;16639;51.488;0.152;2022-08-01T07:24:32;13.98;;;5.63;;
29730;SDS011;16639;51.488;0.152;2022-08-01T07:27:01;10.48;;;4.80;;
29730;SDS011;16639;51.488;0.152;2022-08-01T07:29:48;13.13;;;4.85;;
29730;SDS011;16639;51.488;0.152;2022-08-01T07:32:15;4.90;;;3.85;;
29730;SDS011;16639;51.488;0.152;2022-08-01T07:34:43;7.82;;;4.25;;
29730;SDS011;16639;51.488;0.152;2022-08-01T07:37:11;8.27;;;3.92;;
29730;SDS011;16639;51.488;0.152;2022-08-01T07:39:38;7.28;;;4.68;;
29730;SDS011;16639;51.488;0.152;2022-08-01T07:42:05;10.27;;;5.30;;
29730;SDS011;16639;51.488;0.152;2022-08-01T07:44:34;8.70;;;4.18;;
29730;SDS011;16639;51.488;0.152;2022-08-01T07:47:03;7.47;;;4.13;;
29730;SDS011;16639;51.488;0.152;2022-08-01T07:49:31;12.82;;;4.53;;
29730;SDS011;16639;51.488;0.152;2022-08-01T07:52:05;13.82;;;5.10;;
29730;SDS011;16639;51.488;0.152;2022-08-01T07:54:33;17.02;;;4.88;;
29730;SDS011;16639;51.488;0.152;2022-08-01T07:57:01;12.40;;;4.53;;
29730;SDS011;16639;51.488;0.152;2022-08-01T07:59:29;11.68;;;4.07;;
29730;SDS011;16639;51.488;0.152;2022-08-01T08:01:57;13.50;;;4.68;;
29730;SDS011;16639;51.488;0.152;2022-08-01T08:04:25;10.45;;;4.35;;
29730;SDS011;16639;51.488;0.152;2022-08-01T08:06:53;5.50;;;4.07;;
29730;SDS011;16639;51.488;0.152;2022-08-01T08:09:21;6.43;;;4.28;;
29730;SDS011;16639;51.488;0.152;2022-08-01T08:11:48;7.22;;;4.45;;
29730;SDS011;16639;51.488;0.152;2022-08-01T08:14:16;6.45;;;3.88;;
29730;SDS011;16639;51.488;0.152;2022-08-01T08:16:44;9.68;;;5.07;;
29730;SDS011;16639;51.488;0.152;2022-08-01T08:19:12;9.38;;;5.50;;
29730;SDS011;16639;51.488;0.152;2022-08-01T08:21:40;9.98;;;4.50;;
29730;SDS011;16639;51.488;0.152;2022-08-01T08:24:08;9.52;;;4.70;;
29730;SDS011;16639;51.488;0.152;2022-08-01T08:26:56;10.63;;;5.43;;
29730;SDS011;16639;51.488;0.152;2022-08-01T08:29:25;10.30;;;5.07;;
29730;SDS011;16639;51.488;0.152;2022-08-01T08:31:53;6.75;;;4.70;;
29730;SDS011;16639;51.488;0.152;2022-08-01T08:34:23;9.48;;;4.45;;
29730;SDS011;16639;51.488;0.152;2022-08-01T08:36:50;8.43;;;4.85;;
29730;SDS011;16639;51.488;0.152;2022-08-01T08:39:19;8.27;;;4.82;;
29730;SDS011;16639;51.488;0.152;2022-08-01T08:41:47;9.93;;;5.15;;
29730;SDS011;16639;51.488;0.152;2022-08-01T08:44:16;11.48;;;5.10;;
29730;SDS011;16639;51.488;0.152;2022-08-01T08:46:45;9.32;;;4.78;;
29730;SDS011;16639;51.488;0.152;2022-08-01T08:49:24;6.00;;;4.03;;
29730;SDS011;16639;51.488;0.152;2022-08-01T08:52:02;15.35;;;5.97;;
29730;SDS011;16639;51.488;0.152;2022-08-01T08:54:34;8.88;;;3.88;;
29730;SDS011;16639;51.488;0.152;2022-08-01T08:57:04;10.25;;;5.38;;
29730;SDS011;16639;51.488;0.152;2022-08-01T08:59:32;10.00;;;4.50;;
29730;SDS011;16639;51.488;0.152;2022-08-01T09:02:00;5.03;;;3.67;;
29730;SDS011;16639;51.488;0.152;2022-08-01T09:04:27;5.25;;;3.25;;
29730;SDS011;16639;51.488;0.152;2022-08-01T09:06:54;6.53;;;2.90;;
29730;SDS011;16639;51.488;0.152;2022-08-01T09:09:22;7.85;;;3.00;;
29730;SDS011;16639;51.488;0.152;2022-08-01T09:11:50;4.22;;;2.92;;
29730;SDS011;16639;51.488;0.152;2022-08-01T09:14:23;6.03;;;3.08;;
29730;SDS011;16639;51.488;0.152;2022-08-01T09:17:00;6.78;;;2.80;;
29730;SDS011;16639;51.488;0.152;2022-08-01T09:19:41;16.08;;;2.67;;
29730;SDS011;16639;51.488;0.152;2022-08-01T09:22:11;6.20;;;2.72;;
29730;SDS011;16639;51.488;0.152;2022-08-01T09:24:40;4.80;;;2.55;;
29730;SDS011;16639;51.488;0.152;2022-08-01T09:27:15;10.45;;;3.60;;
29730;SDS011;16639;51.488;0.152;2022-08-01T09:29:48;5.93;;;2.85;;
29730;SDS011;16639;51.488;0.152;2022-08-01T09:32:29;4.35;;;2.47;;
29730;SDS011;16639;51.488;0.152;2022-08-01T09:35:23;6.78;;;2.35;;
29730;SDS011;16639;51.488;0.152;2022-08-01T09:41:04;3.72;;;2.30;;
29730;SDS011;16639;51.488;0.152;2022-08-01T09:43:34;5.05;;;1.75;;
29730;SDS011;16639;51.488;0.152;2022-08-01T09:46:09;4.85;;;2.35;;
29730;SDS011;16639;51.488;0.152;2022-08-01T09:49:00;3.10;;;2.38;;
29730;SDS011;16639;51.488;0.152;2022-08-01T09:51:37;3.53;;;2.03;;
29730;SDS011;16639;51.488;0.152;2022-08-01T09:54:29;4.80;;;2.65;;
29730;SDS011;16639;51.488;0.152;2022-08-01T09:57:08;4.63;;;2.30;;
29730;SDS011;16639;51.488;0.152;2022-08-01T09:59:38;5.00;;;2.35;;
29730;SDS011;16639;51.488;0.152;2022-08-01T10:04:57;7.45;;;2.47;;
29730;SDS011;16639;51.488;0.152;2022-08-01T10:07:34;5.32;;;2.55;;
29730;SDS011;16639;51.488;0.152;2022-08-01T10:10:10;5.05;;;2.67;;
29730;SDS011;16639;51.488;0.152;2022-08-01T10:12:41;4.28;;;2.75;;
29730;SDS011;16639;51.488;0.152;2022-08-01T10:15:12;4.95;;;2.50;;
29730;SDS011;16639;51.488;0.152;2022-08-01T10:17:50;5.88;;;2.42;;
29730;SDS011;16639;51.488;0.152;2022-08-01T10:20:29;4.55;;;2.67;;
29730;SDS011;16639;51.488;0.152;2022-08-01T10:23:01;3.47;;;2.13;;
29730;SDS011;16639;51.488;0.152;2022-08-01T10:25:34;6.80;;;2.28;;
29730;SDS011;16639;51.488;0.152;2022-08-01T10:28:15;7.32;;;2.50;;
29730;SDS011;16639;51.488;0.152;2022-08-01T10:30:49;4.88;;;2.13;;
29730;SDS011;16639;51.488;0.152;2022-08-01T10:33:21;4.00;;;2.17;;
29730;SDS011;16639;51.488;0.152;2022-08-01T10:36:09;6.15;;;2.45;;
29730;SDS011;16639;51.488;0.152;2022-08-01T10:38:37;7.15;;;2.58;;
29730;SDS011;16639;51.488;0.152;2022-08-01T10:41:05;5.97;;;3.22;;
29730;SDS011;16639;51.488;0.152;2022-08-01T10:43:35;6.10;;;3.13;;
29730;SDS011;16639;51.488;0.152;2022-08-01T10:46:05;10.35;;;3.03;;
29730;SDS011;16639;51.488;0.152;2022-08-01T10:51:41;8.63;;;2.55;;
29730;SDS011;16639;51.488;0.152;2022-08-01T10:54:20;5.50;;;2.05;;
29730;SDS011;16639;51.488;0.152;2022-08-01T10:56:51;3.72;;;2.38;;
29730;SDS011;16639;51.488;0.152;2022-08-01T10:59:21;2.55;;;2.25;;
29730;SDS011;16639;51.488;0.152;2022-08-01T11:02:11;3.70;;;2.33;;
29730;SDS011;16639;51.488;0.152;2022-08-01T11:04:55;6.97;;;2.58;;
29730;SDS011;16639;51.488;0.152;2022-08-01T11:12:52;5.38;;;2.35;;
29730;SDS011;16639;51.488;0.152;2022-08-01T11:15:20;2.92;;;2.03;;
29730;SDS011;16639;51.488;0.152;2022-08-01T11:17:57;5.93;;;2.60;;
29730;SDS011;16639;51.488;0.152;2022-08-01T11:20:27;4.28;;;2.45;;
29730;SDS011;16639;51.488;0.152;2022-08-01T11:28:23;6.45;;;1.60;;
29730;SDS011;16639;51.488;0.152;2022-08-01T11:41:13;10.07;;;2.20;;
29730;SDS011;16639;51.488;0.152;2022-08-01T11:44:12;5.93;;;2.55;;
29730;SDS011;16639;51.488;0.152;2022-08-01T11:49:29;7.70;;;2.38;;
29730;SDS011;16639;51.488;0.152;2022-08-01T11:52:09;6.07;;;2.20;;
29730;SDS011;16639;51.488;0.152;2022-08-01T11:55:09;3.97;;;2.25;;
29730;SDS011;16639;51.488;0.152;2022-08-01T11:57:42;6.50;;;2.10;;
29730;SDS011;16639;51.488;0.152;2022-08-01T12:00:11;6.85;;;2.63;;
29730;SDS011;16639;51.488;0.152;2022-08-01T12:02:43;5.13;;;2.97;;
29730;SDS011;16639;51.488;0.152;2022-08-01T12:05:13;2.53;;;2.22;;
29730;SDS011;16639;51.488;0.152;2022-08-01T12:07:43;5.07;;;2.17;;
29730;SDS011;16639;51.488;0.152;2022-08-01T12:10:14;4.15;;;2.30;;
29730;SDS011;16639;51.488;0.152;2022-08-01T12:12:52;3.08;;;2.45;;
29730;SDS011;16639;51.488;0.152;2022-08-01T12:15:21;4.30;;;2.22;;
29730;SDS011;16639;51.488;0.152;2022-08-01T12:17:57;3.67;;;2.47;;
29730;SDS011;16639;51.488;0.152;2022-08-01T12:20:29;4.47;;;2.65;;
29730;SDS011;16639;51.488;0.152;2022-08-01T12:23:03;4.50;;;2.92;;
29730;SDS011;16639;51.488;0.152;2022-08-01T12:25:32;6.55;;;2.05;;
29730;SDS011;16639;51.488;0.152;2022-08-01T12:28:02;6.28;;;2.80;;
29730;SDS011;16639;51.488;0.152;2022-08-01T12:30:31;3.15;;;1.90;;
29730;SDS011;16639;51.488;0.152;2022-08-01T12:33:03;2.88;;;1.80;;
29730;SDS011;16639;51.488;0.152;2022-08-01T12:35:31;2.92;;;2.30;;
29730;SDS011;16639;51.488;0.152;2022-08-01T12:38:00;6.53;;;2.35;;
29730;SDS011;16639;51.488;0.152;2022-08-01T12:40:31;4.38;;;1.90;;
29730;SDS011;16639;51.488;0.152;2022-08-01T12:43:01;2.80;;;1.98;;
29730;SDS011;16639;51.488;0.152;2022-08-01T12:45:33;3.08;;;2.42;;
29730;SDS011;16639;51.488;0.152;2022-08-01T12:48:23;6.97;;;1.88;;
29730;SDS011;16639;51.488;0.152;2022-08-01T12:50:52;4.25;;;2.15;;
29730;SDS011;16639;51.488;0.152;2022-08-01T12:53:22;5.15;;;2.30;;
29730;SDS011;16639;51.488;0.152;2022-08-01T12:55:53;5.82;;;2.88;;
29730;SDS011;16639;51.488;0.152;2022-08-01T12:58:32;3.25;;;1.83;;
29730;SDS011;16639;51.488;0.152;2022-08-01T13:01:04;1.80;;;1.45;;
29730;SDS011;16639;51.488;0.152;2022-08-01T13:03:33;3.30;;;2.10;;
29730;SDS011;16639;51.488;0.152;2022-08-01T13:06:01;3.13;;;1.88;;
29730;SDS011;16639;51.488;0.152;2022-08-01T13:08:36;5.55;;;1.75;;
29730;SDS011;16639;51.488;0.152;2022-08-01T13:11:06;5.30;;;2.67;;
29730;SDS011;16639;51.488;0.152;2022-08-01T13:13:46;4.95;;;2.50;;
29730;SDS011;16639;51.488;0.152;2022-08-01T13:16:21;5.80;;;2.47;;
29730;SDS011;16639;51.488;0.152;2022-08-01T13:19:04;2.45;;;2.10;;
29730;SDS011;16639;51.488;0.152;2022-08-01T13:21:33;5.90;;;1.90;;
29730;SDS011;16639;51.488;0.152;2022-08-01T13:26:55;6.95;;;1.80;;
29730;SDS011;16639;51.488;0.152;2022-08-01T13:29:34;4.60;;;1.98;;
29730;SDS011;16639;51.488;0.152;2022-08-01T13:32:12;3.40;;;1.63;;
29730;SDS011;16639;51.488;0.152;2022-08-01T13:35:05;4.72;;;1.80;;
29730;SDS011;16639;51.488;0.152;2022-08-01T13:37:35;4.18;;;1.45;;
29730;SDS011;16639;51.488;0.152;2022-08-01T13:40:05;5.82;;;1.70;;
29730;SDS011;16639;51.488;0.152;2022-08-01T13:42:34;2.92;;;1.88;;
29730;SDS011;16639;51.488;0.152;2022-08-01T13:45:03;4.00;;;1.67;;
29730;SDS011;16639;51.488;0.152;2022-08-01T13:47:43;7.43;;;1.92;;
29730;SDS011;16639;51.488;0.152;2022-08-01T13:50:31;2.67;;;1.80;;
29730;SDS011;16639;51.488;0.152;2022-08-01T13:52:58;13.15;;;2.17;;
29730;SDS011;16639;51.488;0.152;2022-08-01T13:55:26;4.88;;;2.00;;
29730;SDS011;16639;51.488;0.152;2022-08-01T13:58:00;6.38;;;2.40;;
29730;SDS011;16639;51.488;0.152;2022-08-01T14:00:28;5.45;;;2.03;;
29730;SDS011;16639;51.488;0.152;2022-08-01T14:02:55;2.20;;;1.63;;
29730;SDS011;16639;51.488;0.152;2022-08-01T14:05:22;4.82;;;2.08;;
29730;SDS011;16639;51.488;0.152;2022-08-01T14:07:50;4.82;;;1.90;;
29730;SDS011;16639;51.488;0.152;2022-08-01T14:10:23;4.68;;;1.70;;
29730;SDS011;16639;51.488;0.152;2022-08-01T14:12:51;6.18;;;2.80;;
29730;SDS011;16639;51.488;0.152;2022-08-01T14:15:22;5.20;;;2.03;;
29730;SDS011;16639;51.488;0.152;2022-08-01T14:18:05;5.25;;;1.77;;
29730;SDS011;16639;51.488;0.152;2022-08-01T14:20:35;4.50;;;1.85;;
29730;SDS011;16639;51.488;0.152;2022-08-01T14:23:04;4.50;;;2.05;;
29730;SDS011;16639;51.488;0.152;2022-08-01T14:25:35;5.30;;;1.92;;
29730;SDS011;16639;51.488;0.152;2022-08-01T14:28:26;3.33;;;2.50;;
29730;SDS011;16639;51.488;0.152;2022-08-01T14:30:58;4.25;;;1.83;;
29730;SDS011;16639;51.488;0.152;2022-08-01T14:33:26;9.50;;;2.55;;
29730;SDS011;16639;51.488;0.152;2022-08-01T14:35:53;4.82;;;2.00;;
29730;SDS011;16639;51.488;0.152;2022-08-01T14:38:41;4.85;;;2.08;;
29730;SDS011;16639;51.488;0.152;2022-08-01T14:41:12;2.30;;;1.70;;
29730;SDS011;16639;51.488;0.152;2022-08-01T14:43:40;5.15;;;2.00;;
29730;SDS011;16639;51.488;0.152;2022-08-01T14:46:07;3.78;;;1.65;;
29730;SDS011;16639;51.488;0.152;2022-08-01T14:48:36;4.18;;;1.90;;
29730;SDS011;16639;51.488;0.152;2022-08-01T14:51:04;4.75;;;1.70;;
29730;SDS011;16639;51.488;0.152;2022-08-01T14:53:34;6.07;;;1.92;;
29730;SDS011;16639;51.488;0.152;2022-08-01T14:56:04;5.35;;;2.17;;
29730;SDS011;16639;51.488;0.152;2022-08-01T14:58:32;5.20;;;1.92;;
29730;SDS011;16639;51.488;0.152;2022-08-01T15:01:00;9.18;;;2.40;;
29730;SDS011;16639;51.488;0.152;2022-08-01T15:03:28;14.32;;;2.40;;
29730;SDS011;16639;51.488;0.152;2022-08-01T15:05:55;7.03;;;2.75;;
29730;SDS011;16639;51.488;0.152;2022-08-01T15:08:22;9.45;;;2.45;;
29730;SDS011;16639;51.488;0.152;2022-08-01T15:10:50;3.33;;;2.50;;
29730;SDS011;16639;51.488;0.152;2022-08-01T15:13:17;4.57;;;2.30;;
29730;SDS011;16639;51.488;0.152;2022-08-01T15:15:45;5.78;;;2.20;;
29730;SDS011;16639;51.488;0.152;2022-08-01T15:18:12;8.32;;;2.38;;
29730;SDS011;16639;51.488;0.152;2022-08-01T15:20:39;9.93;;;2.22;;
29730;SDS011;16639;51.488;0.152;2022-08-01T15:23:07;7.03;;;2.80;;
29730;SDS011;16639;51.488;0.152;2022-08-01T15:25:34;7.43;;;1.90;;
29730;SDS011;16639;51.488;0.152;2022-08-01T15:28:10;7.00;;;2.28;;
29730;SDS011;16639;51.488;0.152;2022-08-01T15:30:38;7.45;;;2.20;;
29730;SDS011;16639;51.488;0.152;2022-08-01T15:33:06;9.20;;;2.60;;
29730;SDS011;16639;51.488;0.152;2022-08-01T15:35:34;6.85;;;2.40;;
29730;SDS011;16639;51.488;0.152;2022-08-01T15:38:01;5.65;;;2.30;;
29730;SDS011;16639;51.488;0.152;2022-08-01T15:40:29;7.25;;;2.15;;
29730;SDS011;16639;51.488;0.152;2022-08-01T15:42:59;6.13;;;2.13;;
29730;SDS011;16639;51.488;0.152;2022-08-01T15:45:27;4.78;;;2.00;;
29730;SDS011;16639;51.488;0.152;2022-08-01T15:48:13;3.97;;;2.73;;
29730;SDS011;16639;51.488;0.152;2022-08-01T15:53:34;10.00;;;2.30;;
29730;SDS011;16639;51.488;0.152;2022-08-01T15:56:01;7.47;;;2.10;;
29730;SDS011;16639;51.488;0.152;2022-08-01T15:58:29;3.42;;;2.30;;